createdAt,value
2016-05-23T00:00:25.950Z,48.66
2016-05-23T00:01:25.968Z,48.57
2016-05-23T00:02:25.987Z,48.69
2016-05-23T00:03:25.989Z,48.76
2016-05-23T00:04:26.023Z,48.57
2016-05-23T00:05:26.011Z,48.76
2016-05-23T00:06:26.028Z,48.76
2016-05-23T00:07:26.031Z,48.57
2016-05-23T00:08:26.050Z,48.76
2016-05-23T00:09:26.053Z,48.76
2016-05-23T00:10:26.055Z,48.76
2016-05-23T00:11:26.058Z,48.86
2016-05-23T00:12:26.077Z,48.76
2016-05-23T00:13:26.094Z,48.57
2016-05-23T00:14:25.940Z,48.95
2016-05-23T00:15:26.115Z,48.95
2016-05-23T00:16:26.119Z,48.86
2016-05-23T00:17:26.136Z,48.66
2016-05-23T00:18:26.154Z,48.66
2016-05-23T00:19:26.002Z,48.66
2016-05-23T00:20:26.176Z,48.57
2016-05-23T00:21:26.163Z,48.57
2016-05-23T00:22:26.181Z,48.86
2016-05-23T00:23:26.200Z,48.66
2016-05-23T00:24:26.218Z,48.66
2016-05-23T00:25:26.204Z,48.76
2016-05-23T00:26:26.224Z,48.57
2016-05-23T00:27:26.241Z,48.57
2016-05-23T00:28:26.260Z,48.95
2016-05-23T00:29:26.262Z,48.57
2016-05-23T00:30:26.265Z,48.86
2016-05-23T00:31:26.284Z,48.95
2016-05-23T00:32:26.286Z,48.95
2016-05-23T00:33:26.289Z,48.86
2016-05-23T00:34:26.307Z,48.86
2016-05-23T00:35:26.309Z,48.95
2016-05-23T00:36:26.328Z,48.95
2016-05-23T00:37:26.331Z,48.95
2016-05-23T00:38:26.334Z,48.86
2016-05-23T00:39:26.367Z,48.76
2016-05-23T00:40:26.386Z,48.86
2016-05-23T00:41:26.372Z,48.57
2016-05-23T00:42:26.375Z,48.86
2016-05-23T00:43:26.394Z,48.86
2016-05-23T00:44:26.491Z,48.86
2016-05-23T00:45:26.430Z,48.76
2016-05-23T00:46:26.433Z,48.86
2016-05-23T00:47:26.452Z,48.86
2016-05-23T00:48:26.454Z,48.86
2016-05-23T00:49:26.472Z,48.86
2016-05-23T00:50:26.475Z,48.76
2016-05-23T00:51:26.478Z,48.76
2016-05-23T00:52:26.496Z,48.86
2016-05-23T00:53:26.342Z,48.86
2016-05-23T00:54:26.361Z,48.76
2016-05-23T00:55:26.379Z,48.86
2016-05-23T00:56:26.522Z,48.86
2016-05-23T00:57:26.541Z,48.76
2016-05-23T00:58:26.543Z,48.86
2016-05-23T00:59:26.562Z,48.76
2016-05-23T01:00:26.408Z,48.86
2016-05-23T01:01:26.584Z,48.86
2016-05-23T01:02:26.586Z,48.86
2016-05-23T01:03:26.603Z,48.86
2016-05-23T01:04:26.607Z,48.95
2016-05-23T01:05:26.625Z,48.86
2016-05-23T01:06:26.643Z,48.76
2016-05-23T01:07:26.630Z,48.86
2016-05-23T01:08:26.648Z,48.86
2016-05-23T01:09:26.667Z,48.86
2016-05-23T01:10:26.685Z,48.86
2016-05-23T01:11:26.703Z,48.86
2016-05-23T01:12:26.691Z,48.76
2016-05-23T01:13:26.694Z,48.86
2016-05-23T01:14:26.914Z,48.86
2016-05-23T01:15:26.730Z,48.76
2016-05-23T01:16:26.749Z,48.86
2016-05-23T01:17:26.735Z,48.86
2016-05-23T01:18:26.769Z,48.86
2016-05-23T01:19:26.772Z,48.76
2016-05-23T01:20:26.775Z,48.95
2016-05-23T01:21:26.793Z,48.86
2016-05-23T01:22:26.811Z,48.86
2016-05-23T01:23:26.798Z,48.86
2016-05-23T01:24:26.645Z,48.86
2016-05-23T01:25:26.851Z,48.76
2016-05-23T01:26:26.837Z,48.86
2016-05-23T01:27:26.685Z,48.76
2016-05-23T01:28:26.859Z,48.86
2016-05-23T01:29:26.861Z,48.76
2016-05-23T01:30:26.879Z,48.86
2016-05-23T01:31:26.914Z,48.86
2016-05-23T01:32:26.901Z,48.76
2016-05-23T01:33:26.903Z,48.86
2016-05-23T01:34:26.922Z,48.86
2016-05-23T01:35:26.940Z,48.76
2016-05-23T01:36:26.958Z,48.86
2016-05-23T01:37:26.961Z,48.86
2016-05-23T01:38:26.963Z,48.86
2016-05-23T01:39:26.982Z,48.86
2016-05-23T01:40:26.984Z,48.86
2016-05-23T01:41:26.987Z,48.86
2016-05-23T01:42:27.006Z,48.86
2016-05-23T01:43:27.024Z,48.86
2016-05-23T01:44:27.042Z,48.95
2016-05-23T01:45:27.030Z,48.86
2016-05-23T01:46:27.047Z,48.86
2016-05-23T01:47:27.035Z,48.86
2016-05-23T01:48:26.913Z,48.86
2016-05-23T01:49:27.071Z,48.86
2016-05-23T01:50:27.090Z,48.76
2016-05-23T01:51:27.093Z,48.86
2016-05-23T01:52:27.110Z,48.86
2016-05-23T01:53:27.113Z,48.86
2016-05-23T01:54:27.132Z,48.86
2016-05-23T01:55:27.135Z,48.76
2016-05-23T01:56:27.152Z,48.86
2016-05-23T01:57:26.999Z,48.86
2016-05-23T01:58:27.174Z,48.86
2016-05-23T01:59:27.020Z,48.76
2016-05-23T02:00:27.179Z,48.86
2016-05-23T02:01:27.197Z,48.86
2016-05-23T02:02:27.201Z,48.86
2016-05-23T02:03:27.062Z,48.86
2016-05-23T02:04:27.236Z,48.86
2016-05-23T02:05:27.224Z,48.86
2016-05-23T02:06:27.086Z,48.86
2016-05-23T02:07:27.244Z,48.86
2016-05-23T02:08:27.279Z,48.86
2016-05-23T02:09:27.282Z,48.86
2016-05-23T02:10:27.300Z,48.86
2016-05-23T02:11:27.303Z,48.86
2016-05-23T02:12:27.305Z,48.76
2016-05-23T02:13:27.322Z,48.86
2016-05-23T02:14:27.326Z,48.86
2016-05-23T02:15:27.344Z,48.86
2016-05-23T02:16:27.347Z,48.86
2016-05-23T02:17:27.349Z,48.86
2016-05-23T02:18:27.211Z,48.95
2016-05-23T02:19:27.386Z,48.86
2016-05-23T02:20:27.389Z,48.86
2016-05-23T02:21:27.392Z,48.95
2016-05-23T02:22:27.410Z,48.86
2016-05-23T02:23:27.429Z,48.95
2016-05-23T02:24:27.447Z,48.76
2016-05-23T02:25:27.434Z,48.86
2016-05-23T02:26:27.452Z,48.95
2016-05-23T02:27:27.455Z,48.95
2016-05-23T02:28:27.457Z,48.57
2016-05-23T02:29:27.476Z,48.76
2016-05-23T02:30:27.479Z,48.57
2016-05-23T02:31:27.496Z,48.86
2016-05-23T02:32:27.360Z,48.57
2016-05-23T02:33:27.534Z,48.57
2016-05-23T02:34:27.537Z,48.86
2016-05-23T02:35:27.539Z,48.66
2016-05-23T02:36:27.556Z,48.95
2016-05-23T02:37:27.545Z,48.66
2016-05-23T02:38:27.578Z,48.76
2016-05-23T02:39:27.425Z,48.76
2016-05-23T02:40:27.583Z,48.86
2016-05-23T02:41:27.603Z,48.86
2016-05-23T02:42:27.605Z,48.86
2016-05-23T02:43:27.623Z,48.57
2016-05-23T02:44:27.625Z,48.66
2016-05-23T02:45:27.644Z,48.95
2016-05-23T02:46:27.631Z,48.95
2016-05-23T02:47:27.664Z,48.95
2016-05-23T02:48:27.667Z,48.95
2016-05-23T02:49:27.686Z,48.76
2016-05-23T02:50:27.533Z,48.66
2016-05-23T02:51:27.691Z,48.86
2016-05-23T02:52:27.538Z,48.66
2016-05-23T02:53:27.727Z,48.66
2016-05-23T02:54:27.715Z,48.57
2016-05-23T02:55:27.749Z,48.57
2016-05-23T02:56:27.752Z,48.66
2016-05-23T02:57:27.771Z,48.76
2016-05-23T02:58:27.773Z,48.57
2016-05-23T02:59:27.790Z,48.66
2016-05-23T03:00:27.637Z,48.86
2016-05-23T03:01:27.796Z,48.57
2016-05-23T03:02:27.815Z,48.66
2016-05-23T03:03:27.817Z,48.66
2016-05-23T03:04:27.835Z,48.95
2016-05-23T03:05:27.837Z,48.86
2016-05-23T03:06:27.840Z,48.57
2016-05-23T03:07:27.859Z,48.86
2016-05-23T03:08:27.862Z,48.86
2016-05-23T03:09:27.880Z,48.66
2016-05-23T03:10:27.883Z,48.66
2016-05-23T03:11:27.745Z,48.66
2016-05-23T03:12:27.904Z,48.57
2016-05-23T03:13:27.922Z,48.66
2016-05-23T03:14:27.925Z,48.57
2016-05-23T03:15:27.787Z,48.86
2016-05-23T03:16:27.947Z,48.54
2016-05-23T03:17:27.964Z,48.57
2016-05-23T03:18:27.966Z,48.76
2016-05-23T03:19:27.986Z,48.64
2016-05-23T03:20:27.988Z,48.57
2016-05-23T03:21:28.006Z,48.76
2016-05-23T03:22:28.025Z,48.76
2016-05-23T03:23:28.027Z,48.57
2016-05-23T03:24:28.046Z,48.66
2016-05-23T03:25:28.049Z,48.74
2016-05-23T03:26:28.067Z,48.76
2016-05-23T03:27:28.069Z,48.76
2016-05-23T03:28:27.915Z,48.66
2016-05-23T03:29:28.543Z,48.66
2016-05-23T03:30:28.077Z,48.74
2016-05-23T03:31:28.096Z,48.64
2016-05-23T03:32:28.114Z,48.66
2016-05-23T03:33:28.148Z,48.76
2016-05-23T03:34:28.150Z,48.66
2016-05-23T03:35:28.138Z,48.64
2016-05-23T03:36:28.156Z,48.54
2016-05-23T03:37:28.159Z,48.66
2016-05-23T03:38:28.176Z,48.74
2016-05-23T03:39:28.195Z,48.76
2016-05-23T03:40:28.198Z,48.74
2016-05-23T03:41:28.045Z,48.76
2016-05-23T03:42:28.062Z,48.74
2016-05-23T03:43:28.222Z,48.66
2016-05-23T03:44:28.537Z,48.74
2016-05-23T03:45:28.242Z,48.74
2016-05-23T03:46:28.261Z,48.64
2016-05-23T03:47:28.263Z,48.74
2016-05-23T03:48:28.298Z,48.74
2016-05-23T03:49:28.300Z,48.76
2016-05-23T03:50:28.303Z,48.66
2016-05-23T03:51:28.306Z,48.83
2016-05-23T03:52:28.324Z,48.76
2016-05-23T03:53:28.311Z,48.76
2016-05-23T03:54:28.330Z,48.76
2016-05-23T03:55:28.348Z,48.66
2016-05-23T03:56:28.350Z,48.74
2016-05-23T03:57:28.369Z,48.74
2016-05-23T03:58:28.371Z,48.66
2016-05-23T03:59:28.765Z,48.57
2016-05-23T04:00:28.424Z,48.66
2016-05-23T04:01:28.426Z,48.66
2016-05-23T04:02:28.429Z,48.76
2016-05-23T04:03:28.432Z,48.76
2016-05-23T04:04:28.451Z,48.66
2016-05-23T04:05:28.453Z,48.74
2016-05-23T04:06:28.456Z,48.57
2016-05-23T04:07:28.474Z,48.76
2016-05-23T04:08:28.508Z,48.66
2016-05-23T04:09:28.495Z,48.64
2016-05-23T04:10:28.498Z,48.66
2016-05-23T04:11:28.515Z,48.64
2016-05-23T04:12:28.518Z,48.64
2016-05-23T04:13:28.521Z,48.54
2016-05-23T04:14:28.540Z,48.66
2016-05-23T04:15:28.573Z,48.76
2016-05-23T04:16:28.545Z,48.76
2016-05-23T04:17:28.423Z,48.64
2016-05-23T04:18:28.566Z,48.76
2016-05-23T04:19:28.600Z,48.54
2016-05-23T04:20:28.603Z,48.54
2016-05-23T04:21:28.449Z,48.57
2016-05-23T04:22:28.608Z,48.54
2016-05-23T04:23:28.627Z,48.64
2016-05-23T04:24:28.644Z,48.64
2016-05-23T04:25:28.663Z,48.66
2016-05-23T04:26:28.666Z,48.66
2016-05-23T04:27:28.669Z,48.57
2016-05-23T04:28:28.671Z,48.74
2016-05-23T04:29:28.549Z,48.57
2016-05-23T04:30:28.707Z,48.66
2016-05-23T04:31:28.694Z,48.64
2016-05-23T04:32:28.712Z,48.54
2016-05-23T04:33:28.746Z,48.57
2016-05-23T04:34:28.749Z,48.57
2016-05-23T04:35:28.752Z,48.54
2016-05-23T04:36:28.755Z,48.64
2016-05-23T04:37:28.773Z,48.54
2016-05-23T04:38:28.792Z,48.66
2016-05-23T04:39:28.779Z,48.54
2016-05-23T04:40:28.781Z,48.54
2016-05-23T04:41:28.815Z,48.64
2016-05-23T04:42:28.849Z,48.57
2016-05-23T04:43:28.821Z,48.64
2016-05-23T04:44:28.839Z,48.57
2016-05-23T04:45:28.857Z,48.66
2016-05-23T04:46:28.845Z,48.57
2016-05-23T04:47:28.878Z,48.66
2016-05-23T04:48:28.881Z,48.57
2016-05-23T04:49:28.915Z,48.57
2016-05-23T04:50:28.746Z,48.66
2016-05-23T04:51:28.906Z,48.64
2016-05-23T04:52:28.922Z,48.66
2016-05-23T04:53:28.926Z,48.66
2016-05-23T04:54:28.788Z,48.57
2016-05-23T04:55:28.947Z,48.57
2016-05-23T04:56:28.794Z,48.66
2016-05-23T04:57:28.969Z,48.76
2016-05-23T04:58:28.986Z,48.66
2016-05-23T04:59:28.848Z,48.66
2016-05-23T05:00:29.008Z,48.86
2016-05-23T05:01:28.994Z,48.76
2016-05-23T05:02:29.028Z,48.76
2016-05-23T05:03:29.015Z,48.76
2016-05-23T05:04:29.033Z,48.57
2016-05-23T05:05:29.036Z,48.66
2016-05-23T05:06:29.055Z,48.66
2016-05-23T05:07:28.901Z,48.66
2016-05-23T05:08:29.076Z,48.76
2016-05-23T05:09:29.079Z,48.27
2016-05-23T05:10:29.096Z,48.27
2016-05-23T05:11:29.115Z,48.18
2016-05-23T05:12:29.118Z,48.64
2016-05-23T05:13:29.120Z,48.08
2016-05-23T05:14:29.201Z,48.76
2016-05-23T05:15:29.141Z,48.18
2016-05-23T05:16:29.176Z,48.86
2016-05-23T05:17:29.162Z,48.18
2016-05-23T05:18:29.181Z,48.37
2016-05-23T05:19:29.183Z,48.37
2016-05-23T05:20:29.202Z,48.27
2016-05-23T05:21:29.204Z,48.27
2016-05-23T05:22:29.222Z,48.37
2016-05-23T05:23:29.070Z,48.27
2016-05-23T05:24:29.228Z,48.18
2016-05-23T05:25:29.105Z,48.18
2016-05-23T05:26:29.265Z,48.37
2016-05-23T05:27:29.267Z,48.18
2016-05-23T05:28:29.270Z,48.37
2016-05-23T05:29:29.930Z,48.27
2016-05-23T05:30:29.307Z,48.37
2016-05-23T05:31:29.310Z,48.47
2016-05-23T05:32:29.327Z,48.57
2016-05-23T05:33:29.315Z,48.47
2016-05-23T05:34:29.349Z,48.37
2016-05-23T05:35:29.367Z,48.47
2016-05-23T05:36:29.354Z,48.47
2016-05-23T05:37:29.372Z,48.47
2016-05-23T05:38:29.375Z,48.37
2016-05-23T05:39:29.378Z,48.47
2016-05-23T05:40:29.396Z,48.37
2016-05-23T05:41:29.415Z,48.37
2016-05-23T05:42:29.418Z,48.47
2016-05-23T05:43:29.435Z,48.47
2016-05-23T05:44:29.454Z,48.47
2016-05-23T05:45:29.438Z,48.37
2016-05-23T05:46:29.475Z,48.37
2016-05-23T05:47:29.475Z,48.37
2016-05-23T05:48:29.478Z,48.57
2016-05-23T05:49:29.480Z,48.66
2016-05-23T05:50:29.498Z,48.37
2016-05-23T05:51:29.517Z,48.57
2016-05-23T05:52:29.551Z,48.47
2016-05-23T05:53:29.522Z,48.47
2016-05-23T05:54:29.540Z,48.18
2016-05-23T05:55:29.559Z,48.27
2016-05-23T05:56:29.577Z,48.37
2016-05-23T05:57:29.564Z,48.57
2016-05-23T05:58:29.583Z,48.37
2016-05-23T05:59:29.867Z,48.47
2016-05-23T06:00:29.603Z,48.47
2016-05-23T06:01:29.622Z,48.37
2016-05-23T06:02:29.625Z,48.47
2016-05-23T06:03:29.644Z,48.47
2016-05-23T06:04:29.646Z,48.18
2016-05-23T06:05:29.664Z,47.99
2016-05-23T06:06:29.652Z,48.27
2016-05-23T06:07:29.685Z,48.27
2016-05-23T06:08:29.687Z,48.47
2016-05-23T06:09:29.690Z,48.47
2016-05-23T06:10:29.708Z,48.47
2016-05-23T06:11:29.727Z,48.27
2016-05-23T06:12:29.745Z,48.27
2016-05-23T06:13:29.732Z,48.27
2016-05-23T06:14:29.734Z,48.37
2016-05-23T06:15:29.597Z,47.89
2016-05-23T06:16:29.787Z,48.08
2016-05-23T06:17:29.774Z,48.18
2016-05-23T06:18:29.777Z,48.27
2016-05-23T06:19:29.796Z,48.37
2016-05-23T06:21:13.082Z,45.2
2016-05-23T06:22:13.085Z,44.34
2016-05-23T06:23:13.072Z,44
2016-05-23T06:24:13.089Z,43.51
2016-05-23T06:25:13.092Z,43.15
2016-05-23T06:26:13.080Z,44.02
2016-05-23T06:27:13.114Z,44.33
2016-05-23T06:28:13.116Z,43.75
2016-05-23T06:29:13.134Z,44.24
2016-05-23T06:30:13.997Z,44.33
2016-05-23T06:31:13.000Z,44.53
2016-05-23T06:32:13.174Z,44.53
2016-05-23T06:33:13.161Z,45.31
2016-05-23T06:34:13.164Z,45.5
2016-05-23T06:35:13.183Z,46.37
2016-05-23T06:36:13.763Z,45.98
2016-05-23T06:37:13.188Z,46.5
2016-05-23T06:38:13.034Z,46.69
2016-05-23T06:39:13.209Z,46.3
2016-05-23T06:40:13.210Z,46.78
2016-05-23T06:41:14.058Z,46.5
2016-05-23T06:42:13.232Z,45.81
2016-05-23T06:43:13.251Z,45.72
2016-05-23T06:44:13.268Z,45.52
2016-05-23T06:45:13.584Z,46.2
2016-05-23T06:46:13.477Z,45.91
2016-05-23T06:47:13.277Z,45.91
2016-05-23T06:48:13.280Z,45.91
2016-05-23T06:49:13.324Z,45.91
2016-05-23T06:50:14.008Z,45.62
2016-05-23T06:51:13.395Z,45.81
2016-05-23T06:52:13.439Z,45.72
2016-05-23T06:53:13.451Z,45.42
2016-05-23T06:54:13.494Z,45.42
2016-05-23T06:55:13.974Z,45.14
2016-05-23T06:56:13.533Z,45.42
2016-05-23T06:57:13.531Z,45.32
2016-05-23T06:58:13.557Z,48.1
2016-05-23T06:59:13.813Z,49.15
2016-05-23T07:00:14.881Z,50.26
2016-05-23T07:01:14.857Z,50.7
2016-05-23T07:02:13.596Z,51.42
2016-05-23T07:03:13.618Z,52.17
2016-05-23T07:04:13.606Z,51.78
2016-05-23T07:05:13.626Z,52.14
2016-05-23T07:06:15.832Z,53.27
2016-05-23T07:07:13.648Z,53.47
2016-05-23T07:08:13.652Z,52.91
2016-05-23T07:09:13.655Z,52.72
2016-05-23T07:10:13.674Z,52.26
2016-05-23T07:11:13.693Z,51.1
2016-05-23T07:12:13.695Z,51.68
2016-05-23T07:13:13.698Z,51.75
2016-05-23T07:14:13.718Z,52.11
2016-05-23T07:15:13.815Z,52.69
2016-05-23T07:16:13.754Z,53.15
2016-05-23T07:17:13.727Z,52.95
2016-05-23T07:18:13.761Z,52.89
2016-05-23T07:19:13.779Z,52.76
2016-05-23T07:20:13.610Z,52.57
2016-05-23T07:21:13.769Z,52.76
2016-05-23T07:22:13.772Z,52.76
2016-05-23T07:23:13.775Z,52.67
2016-05-23T07:24:13.793Z,53.05
2016-05-23T07:25:13.796Z,52.89
2016-05-23T07:26:13.798Z,52.01
2016-05-23T07:27:13.801Z,51.46
2016-05-23T07:28:13.834Z,52.01
2016-05-23T07:29:14.322Z,52.69
2016-05-23T07:30:13.996Z,53.05
2016-05-23T07:31:13.843Z,53.05
2016-05-23T07:32:13.876Z,52.57
2016-05-23T07:33:13.879Z,52.37
2016-05-23T07:34:13.881Z,51.92
2016-05-23T07:35:13.885Z,52.21
2016-05-23T07:36:17.012Z,51.92
2016-05-23T07:37:13.890Z,51.85
2016-05-23T07:38:13.893Z,51.37
2016-05-23T07:39:13.912Z,51.29
2016-05-23T07:40:13.930Z,51.39
2016-05-23T07:41:13.933Z,50.81
2016-05-23T07:42:13.935Z,50.81
2016-05-23T07:43:29.063Z,50.52
2016-05-23T07:44:29.362Z,50.43
2016-05-23T07:45:29.084Z,50.62
2016-05-23T07:46:29.086Z,50.23
2016-05-23T07:47:29.104Z,49.75
2016-05-23T07:48:29.107Z,49.85
2016-05-23T07:49:29.126Z,50.43
2016-05-23T07:50:29.112Z,50.23
2016-05-23T07:51:29.132Z,50.33
2016-05-23T07:52:29.149Z,50.07
2016-05-23T07:53:29.152Z,49.58
2016-05-23T07:54:29.154Z,49.77
2016-05-23T07:55:29.173Z,49.6
2016-05-23T07:56:29.191Z,49.68
2016-05-23T07:57:29.194Z,49.7
2016-05-23T07:58:29.196Z,49.77
2016-05-23T07:59:29.293Z,49.68
2016-05-23T08:00:29.217Z,49.32
2016-05-23T08:01:29.080Z,49.12
2016-05-23T08:02:29.239Z,49.22
2016-05-23T08:03:29.257Z,48.93
2016-05-23T08:04:29.259Z,49.02
2016-05-23T08:05:29.262Z,49.02
2016-05-23T08:06:29.312Z,48.74
2016-05-23T08:07:29.284Z,49.12
2016-05-23T08:08:29.302Z,49.02
2016-05-23T08:09:29.305Z,49.12
2016-05-23T08:10:29.308Z,49.02
2016-05-23T08:11:29.342Z,49.02
2016-05-23T08:12:29.188Z,49.12
2016-05-23T08:13:29.347Z,49.02
2016-05-23T08:14:29.803Z,49.02
2016-05-23T08:15:29.367Z,49.12
2016-05-23T08:16:30.416Z,49.05
2016-05-23T08:17:29.372Z,49.12
2016-05-23T08:18:29.407Z,49.05
2016-05-23T08:19:29.410Z,49.12
2016-05-23T08:20:29.428Z,49.12
2016-05-23T08:21:29.258Z,49.32
2016-05-23T08:22:29.433Z,49.12
2016-05-23T08:23:29.451Z,49.12
2016-05-23T08:24:29.329Z,49.05
2016-05-23T08:25:29.472Z,49.15
2016-05-23T08:26:29.491Z,49.24
2016-05-23T08:27:29.493Z,48.93
2016-05-23T08:28:29.496Z,49.15
2016-05-23T08:29:29.389Z,49.05
2016-05-23T08:30:29.517Z,49.15
2016-05-23T08:31:29.535Z,48.95
2016-05-23T08:32:29.523Z,49.05
2016-05-23T08:33:29.556Z,48.86
2016-05-23T08:34:29.543Z,49.15
2016-05-23T08:35:29.640Z,48.95
2016-05-23T08:36:29.581Z,49.15
2016-05-23T08:37:29.598Z,48.95
2016-05-23T08:38:29.586Z,49.15
2016-05-23T08:39:29.604Z,49.05
2016-05-23T08:40:29.622Z,48.95
2016-05-23T08:41:29.641Z,49.05
2016-05-23T08:42:29.627Z,49.05
2016-05-23T08:43:29.646Z,49.05
2016-05-23T08:44:30.070Z,49.05
2016-05-23T08:45:29.667Z,49.34
2016-05-23T08:46:29.530Z,49.05
2016-05-23T08:47:29.703Z,49.05
2016-05-23T08:48:29.706Z,48.74
2016-05-23T08:49:29.709Z,48.86
2016-05-23T08:50:29.727Z,49.05
2016-05-23T08:51:29.745Z,49.05
2016-05-23T08:52:29.763Z,49.05
2016-05-23T08:53:29.766Z,48.86
2016-05-23T08:54:29.769Z,48.86
2016-05-23T08:55:29.757Z,48.76
2016-05-23T08:56:29.791Z,48.57
2016-05-23T08:57:29.809Z,48.66
2016-05-23T08:58:29.812Z,48.57
2016-05-23T08:59:29.923Z,48.66
2016-05-23T09:00:29.832Z,48.57
2016-05-23T09:01:29.835Z,48.57
2016-05-23T09:02:29.853Z,48.66
2016-05-23T09:03:29.856Z,48.66
2016-05-23T09:04:29.874Z,48.57
2016-05-23T09:05:29.737Z,48.57
2016-05-23T09:06:29.895Z,48.57
2016-05-23T09:07:29.898Z,48.57
2016-05-23T09:08:29.932Z,48.76
2016-05-23T09:09:29.919Z,48.66
2016-05-23T09:10:29.922Z,48.66
2016-05-23T09:11:29.939Z,48.86
2016-05-23T09:12:29.958Z,48.57
2016-05-23T09:13:29.977Z,48.76
2016-05-23T09:14:29.980Z,48.18
2016-05-23T09:15:29.983Z,48.76
2016-05-23T09:16:30.000Z,48.66
2016-05-23T09:17:30.003Z,48.86
2016-05-23T09:18:30.022Z,48.66
2016-05-23T09:19:30.025Z,48.76
2016-05-23T09:20:30.027Z,48.66
2016-05-23T09:21:30.045Z,48.76
2016-05-23T09:22:30.063Z,48.18
2016-05-23T09:23:30.066Z,48.66
2016-05-23T09:24:30.084Z,48.66
2016-05-23T09:25:29.930Z,48.66
2016-05-23T09:26:30.105Z,48.57
2016-05-23T09:27:30.124Z,48.47
2016-05-23T09:28:30.126Z,48.66
2016-05-23T09:29:29.973Z,48.76
2016-05-23T09:30:30.132Z,48.66
2016-05-23T09:31:30.150Z,48.18
2016-05-23T09:32:30.168Z,48.57
2016-05-23T09:33:30.171Z,48.57
2016-05-23T09:34:30.189Z,48.47
2016-05-23T09:35:30.176Z,48.57
2016-05-23T09:36:30.054Z,48.47
2016-05-23T09:37:30.212Z,48.57
2016-05-23T09:38:30.231Z,48.57
2016-05-23T09:39:30.078Z,48.66
2016-05-23T09:40:30.236Z,48.66
2016-05-23T09:41:30.255Z,48.66
2016-05-23T09:42:30.273Z,48.66
2016-05-23T09:43:30.276Z,48.76
2016-05-23T09:44:30.654Z,48.66
2016-05-23T09:45:30.281Z,48.76
2016-05-23T09:46:30.300Z,48.57
2016-05-23T09:47:31.521Z,48.57
2016-05-23T09:48:30.337Z,48.57
2016-05-23T09:49:30.339Z,48.57
2016-05-23T09:50:30.201Z,48.59
2016-05-23T09:51:30.204Z,48.49
2016-05-23T09:52:32.847Z,48.69
2016-05-23T09:53:30.366Z,48.69
2016-05-23T09:54:30.399Z,48.59
2016-05-23T09:55:30.386Z,48.69
2016-05-23T09:56:30.405Z,48.79
2016-05-23T09:57:32.829Z,48.69
2016-05-23T09:58:30.457Z,48.59
2016-05-23T09:59:30.726Z,48.69
2016-05-23T10:00:30.447Z,48.69
2016-05-23T10:01:30.481Z,48.69
2016-05-23T10:02:31.905Z,48.79
2016-05-23T10:03:30.487Z,48.69
2016-05-23T10:04:30.505Z,48.69
2016-05-23T10:05:30.507Z,48.59
2016-05-23T10:06:30.526Z,48.59
2016-05-23T10:07:31.981Z,48.59
2016-05-23T10:08:30.546Z,48.69
2016-05-23T10:09:30.377Z,48.79
2016-05-23T10:10:30.551Z,48.59
2016-05-23T10:11:30.398Z,48.69
2016-05-23T10:12:30.573Z,48.79
2016-05-23T10:13:30.591Z,48.69
2016-05-23T10:14:30.609Z,48.69
2016-05-23T10:15:30.628Z,48.69
2016-05-23T10:16:30.615Z,48.79
2016-05-23T10:17:30.617Z,48.79
2016-05-23T10:18:30.651Z,48.59
2016-05-23T10:19:30.639Z,48.97
2016-05-23T10:20:30.657Z,48.79
2016-05-23T10:21:30.675Z,48.69
2016-05-23T10:22:30.677Z,48.79
2016-05-23T10:23:30.540Z,48.69
2016-05-23T10:24:30.746Z,48.97
2016-05-23T10:25:30.733Z,48.69
2016-05-23T10:26:30.719Z,48.59
2016-05-23T10:27:30.738Z,48.11
2016-05-23T10:28:30.757Z,47.99
2016-05-23T10:29:32.291Z,47.79
2016-05-23T10:30:30.762Z,47.89
2016-05-23T10:31:30.780Z,47.6
2016-05-23T10:32:30.783Z,47.41
2016-05-23T10:33:30.786Z,47.21
2016-05-23T10:34:30.647Z,47.11
2016-05-23T10:35:30.822Z,47.41
2016-05-23T10:36:30.825Z,47.11
2016-05-23T10:37:30.859Z,46.83
2016-05-23T10:38:30.845Z,47.31
2016-05-23T10:39:30.864Z,46.83
2016-05-23T10:40:30.867Z,46.63
2016-05-23T10:41:30.885Z,46.53
2016-05-23T10:42:30.903Z,46.53
2016-05-23T10:43:30.890Z,46.63
2016-05-23T10:44:30.908Z,46.53
2016-05-23T10:45:30.927Z,46.63
2016-05-23T10:46:30.930Z,46.92
2016-05-23T10:47:30.933Z,46.73
2016-05-23T10:48:30.966Z,46.83
2016-05-23T10:49:32.047Z,47.02
2016-05-23T10:50:30.972Z,46.92
2016-05-23T10:51:30.991Z,46.83
2016-05-23T10:52:30.993Z,47.02
2016-05-23T10:53:31.027Z,46.83
2016-05-23T10:54:31.014Z,47.41
2016-05-23T10:55:31.048Z,47.11
2016-05-23T10:56:31.035Z,47.11
2016-05-23T10:57:31.052Z,47.31
2016-05-23T10:58:31.055Z,47.41
2016-05-23T10:59:31.074Z,47.6
2016-05-23T11:00:31.077Z,47.6
2016-05-23T11:01:30.923Z,47.5
2016-05-23T11:02:31.098Z,47.79
2016-05-23T11:03:31.116Z,47.69
2016-05-23T11:04:31.119Z,47.79
2016-05-23T11:05:31.137Z,47.79
2016-05-23T11:06:31.140Z,47.6
2016-05-23T11:07:30.987Z,47.69
2016-05-23T11:08:31.162Z,47.99
2016-05-23T11:09:31.164Z,47.6
2016-05-23T11:10:31.198Z,47.5
2016-05-23T11:11:31.184Z,47.69
2016-05-23T11:12:31.203Z,47.69
2016-05-23T11:13:31.221Z,47.79
2016-05-23T11:14:31.067Z,47.69
2016-05-23T11:15:31.242Z,47.89
2016-05-23T11:16:31.261Z,47.89
2016-05-23T11:17:31.264Z,47.79
2016-05-23T11:18:31.267Z,47.5
2016-05-23T11:19:31.284Z,47.6
2016-05-23T11:20:31.287Z,47.79
2016-05-23T11:21:31.305Z,47.69
2016-05-23T11:22:31.167Z,47.6
2016-05-23T11:23:31.311Z,47.79
2016-05-23T11:24:31.329Z,47.89
2016-05-23T11:25:31.332Z,47.5
2016-05-23T11:26:31.350Z,47.89
2016-05-23T11:27:31.353Z,47.6
2016-05-23T11:28:31.215Z,47.99
2016-05-23T11:29:31.249Z,47.89
2016-05-23T11:30:31.392Z,48.08
2016-05-23T11:31:31.410Z,48.08
2016-05-23T11:32:31.413Z,48.08
2016-05-23T11:33:31.432Z,48.08
2016-05-23T11:34:31.435Z,48.18
2016-05-23T11:35:31.452Z,48.37
2016-05-23T11:36:31.455Z,48.47
2016-05-23T11:37:31.458Z,48.27
2016-05-23T11:38:31.492Z,48.27
2016-05-23T11:39:31.463Z,48.27
2016-05-23T11:40:31.497Z,48.08
2016-05-23T11:41:31.515Z,48.57
2016-05-23T11:42:31.518Z,48.37
2016-05-23T11:43:31.536Z,48.47
2016-05-23T11:44:31.539Z,48.57
2016-05-23T11:45:31.557Z,48.47
2016-05-23T11:46:31.559Z,48.57
2016-05-23T11:47:31.578Z,48.18
2016-05-23T11:48:31.581Z,48.66
2016-05-23T11:49:31.599Z,48.66
2016-05-23T11:50:31.602Z,48.18
2016-05-23T11:51:31.620Z,48.47
2016-05-23T11:52:31.623Z,48.06
2016-05-23T11:53:31.642Z,47.69
2016-05-23T11:54:31.644Z,47.41
2016-05-23T11:55:31.663Z,48.08
2016-05-23T11:56:31.508Z,47.79
2016-05-23T11:57:31.683Z,47.69
2016-05-23T11:58:31.686Z,47.6
2016-05-23T11:59:32.017Z,47.77
2016-05-23T12:00:31.708Z,47.6
2016-05-23T12:01:31.709Z,47.41
2016-05-23T12:02:31.727Z,47.41
2016-05-23T12:03:31.730Z,47.31
2016-05-23T12:04:31.749Z,47.41
2016-05-23T12:05:31.596Z,47.38
2016-05-23T12:06:31.771Z,47.41
2016-05-23T12:07:31.773Z,47.28
2016-05-23T12:08:31.791Z,47.58
2016-05-23T12:09:31.810Z,47.67
2016-05-23T12:10:31.813Z,47.69
2016-05-23T12:11:31.815Z,47.48
2016-05-23T12:12:31.833Z,47.21
2016-05-23T12:13:31.836Z,47.41
2016-05-23T12:14:31.854Z,47.5
2016-05-23T12:15:31.857Z,47.67
2016-05-23T12:16:31.719Z,47.67
2016-05-23T12:17:31.722Z,47.31
2016-05-23T12:18:31.895Z,47.48
2016-05-23T12:19:31.898Z,47.67
2016-05-23T12:20:31.917Z,48.06
2016-05-23T12:21:31.936Z,47.69
2016-05-23T12:22:31.939Z,47.96
2016-05-23T12:23:31.956Z,48.06
2016-05-23T12:24:31.944Z,47.41
2016-05-23T12:25:31.961Z,47.41
2016-05-23T12:26:31.964Z,47.6
2016-05-23T12:27:31.983Z,47.58
2016-05-23T12:28:31.986Z,47.69
2016-05-23T12:29:31.847Z,47.5
2016-05-23T12:30:32.007Z,47.99
2016-05-23T12:31:32.041Z,47.6
2016-05-23T12:32:32.043Z,47.79
2016-05-23T12:33:32.061Z,47.86
2016-05-23T12:34:32.063Z,47.77
2016-05-23T12:35:32.066Z,47.48
2016-05-23T12:36:31.929Z,47.48
2016-05-23T12:37:32.104Z,48.06
2016-05-23T12:38:32.247Z,48.06
2016-05-23T12:39:32.109Z,47.48
2016-05-23T12:40:32.111Z,47.69
2016-05-23T12:41:32.207Z,47.96
2016-05-23T12:42:32.132Z,47.96
2016-05-23T12:43:32.151Z,48.44
2016-05-23T12:44:32.154Z,48.25
2016-05-23T12:45:32.172Z,48.06
2016-05-23T12:46:32.018Z,48.27
2016-05-23T12:47:32.193Z,48.35
2016-05-23T12:48:32.196Z,48.37
2016-05-23T12:49:32.308Z,48.44
2016-05-23T12:50:32.216Z,48.47
2016-05-23T12:51:32.235Z,48.44
2016-05-23T12:52:32.441Z,48.25
2016-05-23T12:53:32.850Z,48.35
2016-05-23T12:54:32.259Z,48.54